sensor_id;sensor_type;location;lat;lon;timestamp;temperature;humidity
8103;DHT22;4094;49.948;11.574;2023-12-20T00:01:54;8.70;73.60
8103;DHT22;4094;49.948;11.574;2023-12-20T00:04:45;8.70;73.60
8103;DHT22;4094;49.948;11.574;2023-12-20T00:07:35;8.70;73.60
8103;DHT22;4094;49.948;11.574;2023-12-20T00:10:24;8.70;73.60
8103;DHT22;4094;49.948;11.574;2023-12-20T00:13:14;8.70;73.80
8103;DHT22;4094;49.948;11.574;2023-12-20T00:16:04;8.70;73.80
8103;DHT22;4094;49.948;11.574;2023-12-20T00:18:53;8.70;73.80
8103;DHT22;4094;49.948;11.574;2023-12-20T00:21:44;8.70;73.80
8103;DHT22;4094;49.948;11.574;2023-12-20T00:24:33;8.70;73.90
8103;DHT22;4094;49.948;11.574;2023-12-20T00:27:23;8.70;73.90
8103;DHT22;4094;49.948;11.574;2023-12-20T00:30:13;8.70;73.90
8103;DHT22;4094;49.948;11.574;2023-12-20T00:33:03;8.80;74.00
8103;DHT22;4094;49.948;11.574;2023-12-20T00:35:52;8.80;74.00
8103;DHT22;4094;49.948;11.574;2023-12-20T00:38:43;8.80;74.10
8103;DHT22;4094;49.948;11.574;2023-12-20T00:41:33;8.80;74.30
8103;DHT22;4094;49.948;11.574;2023-12-20T00:44:22;8.80;74.30
8103;DHT22;4094;49.948;11.574;2023-12-20T00:47:12;8.80;74.40
8103;DHT22;4094;49.948;11.574;2023-12-20T00:50:04;8.80;74.40
8103;DHT22;4094;49.948;11.574;2023-12-20T00:52:54;8.80;74.50
8103;DHT22;4094;49.948;11.574;2023-12-20T00:55:46;8.80;74.50
8103;DHT22;4094;49.948;11.574;2023-12-20T00:58:35;8.80;74.70
8103;DHT22;4094;49.948;11.574;2023-12-20T01:01:24;8.80;74.60
8103;DHT22;4094;49.948;11.574;2023-12-20T01:04:14;8.80;74.60
8103;DHT22;4094;49.948;11.574;2023-12-20T01:07:03;8.80;74.70
8103;DHT22;4094;49.948;11.574;2023-12-20T01:09:53;8.80;74.70
8103;DHT22;4094;49.948;11.574;2023-12-20T01:12:44;8.70;74.60
8103;DHT22;4094;49.948;11.574;2023-12-20T01:15:34;8.80;74.60
8103;DHT22;4094;49.948;11.574;2023-12-20T01:18:24;8.80;74.60
8103;DHT22;4094;49.948;11.574;2023-12-20T01:21:13;8.80;74.60
8103;DHT22;4094;49.948;11.574;2023-12-20T01:24:03;8.80;74.60
8103;DHT22;4094;49.948;11.574;2023-12-20T01:26:53;8.80;74.60
8103;DHT22;4094;49.948;11.574;2023-12-20T01:29:43;8.80;74.70
8103;DHT22;4094;49.948;11.574;2023-12-20T01:32:33;8.80;74.80
8103;DHT22;4094;49.948;11.574;2023-12-20T01:35:23;8.80;75.40
8103;DHT22;4094;49.948;11.574;2023-12-20T01:38:13;8.80;74.50
8103;DHT22;4094;49.948;11.574;2023-12-20T01:41:03;8.80;74.50
8103;DHT22;4094;49.948;11.574;2023-12-20T01:43:52;8.80;74.50
8103;DHT22;4094;49.948;11.574;2023-12-20T01:46:43;8.80;74.50
8103;DHT22;4094;49.948;11.574;2023-12-20T01:49:33;8.80;74.70
8103;DHT22;4094;49.948;11.574;2023-12-20T01:52:23;8.70;74.60
8103;DHT22;4094;49.948;11.574;2023-12-20T01:55:14;8.80;74.70
8103;DHT22;4094;49.948;11.574;2023-12-20T01:58:05;8.80;74.80
8103;DHT22;4094;49.948;11.574;2023-12-20T02:00:55;8.80;74.80
8103;DHT22;4094;49.948;11.574;2023-12-20T02:03:46;8.80;74.80
8103;DHT22;4094;49.948;11.574;2023-12-20T02:06:37;8.70;74.70
8103;DHT22;4094;49.948;11.574;2023-12-20T02:09:30;8.70;74.70
8103;DHT22;4094;49.948;11.574;2023-12-20T02:12:20;8.70;74.80
8103;DHT22;4094;49.948;11.574;2023-12-20T02:15:09;8.70;74.70
8103;DHT22;4094;49.948;11.574;2023-12-20T02:18:01;8.70;74.60
8103;DHT22;4094;49.948;11.574;2023-12-20T02:20:51;8.70;74.80
8103;DHT22;4094;49.948;11.574;2023-12-20T02:23:43;8.70;75.00
8103;DHT22;4094;49.948;11.574;2023-12-20T02:26:32;8.60;74.90
8103;DHT22;4094;49.948;11.574;2023-12-20T02:29:23;8.60;74.80
8103;DHT22;4094;49.948;11.574;2023-12-20T02:32:12;8.60;74.80
8103;DHT22;4094;49.948;11.574;2023-12-20T02:35:01;8.60;75.00
8103;DHT22;4094;49.948;11.574;2023-12-20T02:37:51;8.60;74.90
8103;DHT22;4094;49.948;11.574;2023-12-20T02:40:42;8.60;75.00
8103;DHT22;4094;49.948;11.574;2023-12-20T02:43:37;8.60;74.80
8103;DHT22;4094;49.948;11.574;2023-12-20T02:46:26;8.60;75.00
8103;DHT22;4094;49.948;11.574;2023-12-20T02:49:16;8.60;75.00
8103;DHT22;4094;49.948;11.574;2023-12-20T02:52:06;8.60;75.20
8103;DHT22;4094;49.948;11.574;2023-12-20T02:54:55;8.60;75.20
8103;DHT22;4094;49.948;11.574;2023-12-20T02:57:45;8.60;75.20
8103;DHT22;4094;49.948;11.574;2023-12-20T03:00:35;8.60;75.10
8103;DHT22;4094;49.948;11.574;2023-12-20T03:03:25;8.60;75.10
8103;DHT22;4094;49.948;11.574;2023-12-20T03:06:17;8.60;75.20
8103;DHT22;4094;49.948;11.574;2023-12-20T03:09:07;8.60;75.20
8103;DHT22;4094;49.948;11.574;2023-12-20T03:11:56;8.60;75.10
8103;DHT22;4094;49.948;11.574;2023-12-20T03:14:48;8.50;74.90
8103;DHT22;4094;49.948;11.574;2023-12-20T03:17:37;8.50;75.00
8103;DHT22;4094;49.948;11.574;2023-12-20T03:20:27;8.50;75.00
8103;DHT22;4094;49.948;11.574;2023-12-20T03:23:16;8.50;75.10
8103;DHT22;4094;49.948;11.574;2023-12-20T03:26:08;8.50;75.20
8103;DHT22;4094;49.948;11.574;2023-12-20T03:28:57;8.50;75.30
8103;DHT22;4094;49.948;11.574;2023-12-20T03:31:47;8.50;75.70
8103;DHT22;4094;49.948;11.574;2023-12-20T03:34:38;8.50;75.90
8103;DHT22;4094;49.948;11.574;2023-12-20T03:37:28;8.50;75.60
8103;DHT22;4094;49.948;11.574;2023-12-20T03:40:17;8.50;75.40
8103;DHT22;4094;49.948;11.574;2023-12-20T03:43:08;8.50;75.50
8103;DHT22;4094;49.948;11.574;2023-12-20T03:45:57;8.50;75.60
8103;DHT22;4094;49.948;11.574;2023-12-20T03:48:48;8.50;75.60
8103;DHT22;4094;49.948;11.574;2023-12-20T03:51:37;8.50;75.40
8103;DHT22;4094;49.948;11.574;2023-12-20T03:54:26;8.50;75.20
8103;DHT22;4094;49.948;11.574;2023-12-20T03:57:16;8.50;75.30
8103;DHT22;4094;49.948;11.574;2023-12-20T04:00:07;8.50;75.20
8103;DHT22;4094;49.948;11.574;2023-12-20T04:03:03;8.50;75.20
8103;DHT22;4094;49.948;11.574;2023-12-20T04:05:54;8.50;75.20
8103;DHT22;4094;49.948;11.574;2023-12-20T04:08:44;8.50;75.20
8103;DHT22;4094;49.948;11.574;2023-12-20T04:11:33;8.50;75.20
8103;DHT22;4094;49.948;11.574;2023-12-20T04:14:22;8.40;75.30
8103;DHT22;4094;49.948;11.574;2023-12-20T04:17:13;8.40;75.20
8103;DHT22;4094;49.948;11.574;2023-12-20T04:20:08;8.40;75.20
8103;DHT22;4094;49.948;11.574;2023-12-20T04:22:59;8.40;75.40
8103;DHT22;4094;49.948;11.574;2023-12-20T04:25:49;8.40;75.30
8103;DHT22;4094;49.948;11.574;2023-12-20T04:28:38;8.40;75.30
8103;DHT22;4094;49.948;11.574;2023-12-20T04:31:28;8.40;75.30
8103;DHT22;4094;49.948;11.574;2023-12-20T04:34:18;8.40;75.50
8103;DHT22;4094;49.948;11.574;2023-12-20T04:37:07;8.40;75.40
8103;DHT22;4094;49.948;11.574;2023-12-20T04:39:58;8.40;75.50
8103;DHT22;4094;49.948;11.574;2023-12-20T04:42:47;8.40;75.70
8103;DHT22;4094;49.948;11.574;2023-12-20T04:45:36;8.30;75.60
8103;DHT22;4094;49.948;11.574;2023-12-20T04:48:26;8.30;75.70
8103;DHT22;4094;49.948;11.574;2023-12-20T04:51:16;8.40;76.00
8103;DHT22;4094;49.948;11.574;2023-12-20T04:54:11;8.30;75.80
8103;DHT22;4094;49.948;11.574;2023-12-20T04:57:04;8.30;75.70
8103;DHT22;4094;49.948;11.574;2023-12-20T04:59:53;8.30;76.10
8103;DHT22;4094;49.948;11.574;2023-12-20T05:02:42;8.30;76.20
8103;DHT22;4094;49.948;11.574;2023-12-20T05:05:32;8.30;76.20
8103;DHT22;4094;49.948;11.574;2023-12-20T05:08:22;8.40;76.00
8103;DHT22;4094;49.948;11.574;2023-12-20T05:11:12;8.40;75.70
8103;DHT22;4094;49.948;11.574;2023-12-20T05:14:04;8.40;75.50
8103;DHT22;4094;49.948;11.574;2023-12-20T05:16:54;8.30;75.40
8103;DHT22;4094;49.948;11.574;2023-12-20T05:19:43;8.30;75.50
8103;DHT22;4094;49.948;11.574;2023-12-20T05:22:33;8.30;75.60
8103;DHT22;4094;49.948;11.574;2023-12-20T05:25:24;8.30;75.60
8103;DHT22;4094;49.948;11.574;2023-12-20T05:28:15;8.30;75.60
8103;DHT22;4094;49.948;11.574;2023-12-20T05:31:05;8.30;75.60
8103;DHT22;4094;49.948;11.574;2023-12-20T05:33:56;8.30;75.50
8103;DHT22;4094;49.948;11.574;2023-12-20T05:36:46;8.20;75.50
8103;DHT22;4094;49.948;11.574;2023-12-20T05:39:36;8.20;75.50
8103;DHT22;4094;49.948;11.574;2023-12-20T05:42:25;8.20;75.60
8103;DHT22;4094;49.948;11.574;2023-12-20T05:45:15;8.20;75.70
8103;DHT22;4094;49.948;11.574;2023-12-20T05:48:06;8.20;75.80
8103;DHT22;4094;49.948;11.574;2023-12-20T05:50:55;8.20;76.00
8103;DHT22;4094;49.948;11.574;2023-12-20T05:53:45;8.20;75.90
8103;DHT22;4094;49.948;11.574;2023-12-20T05:56:34;8.20;75.90
8103;DHT22;4094;49.948;11.574;2023-12-20T05:59:23;8.20;75.80
8103;DHT22;4094;49.948;11.574;2023-12-20T06:02:13;8.20;75.70
8103;DHT22;4094;49.948;11.574;2023-12-20T06:05:06;8.20;75.70
8103;DHT22;4094;49.948;11.574;2023-12-20T06:07:56;8.20;75.80
8103;DHT22;4094;49.948;11.574;2023-12-20T06:10:49;8.20;75.80
8103;DHT22;4094;49.948;11.574;2023-12-20T06:13:38;8.20;75.90
8103;DHT22;4094;49.948;11.574;2023-12-20T06:16:27;8.20;75.90
8103;DHT22;4094;49.948;11.574;2023-12-20T06:19:17;8.20;76.10
8103;DHT22;4094;49.948;11.574;2023-12-20T06:22:08;8.20;76.30
8103;DHT22;4094;49.948;11.574;2023-12-20T06:24:57;8.20;76.30
8103;DHT22;4094;49.948;11.574;2023-12-20T06:27:47;8.20;76.30
8103;DHT22;4094;49.948;11.574;2023-12-20T06:30:37;8.20;76.30
8103;DHT22;4094;49.948;11.574;2023-12-20T06:33:27;8.20;76.30
8103;DHT22;4094;49.948;11.574;2023-12-20T06:36:24;8.20;76.40
8103;DHT22;4094;49.948;11.574;2023-12-20T06:39:15;8.20;76.50
8103;DHT22;4094;49.948;11.574;2023-12-20T06:42:04;8.20;76.40
8103;DHT22;4094;49.948;11.574;2023-12-20T06:44:54;8.20;76.50
8103;DHT22;4094;49.948;11.574;2023-12-20T06:47:44;8.20;76.50
8103;DHT22;4094;49.948;11.574;2023-12-20T06:50:34;8.20;76.50
8103;DHT22;4094;49.948;11.574;2023-12-20T06:53:29;8.20;76.60
8103;DHT22;4094;49.948;11.574;2023-12-20T06:56:19;8.20;76.50
8103;DHT22;4094;49.948;11.574;2023-12-20T06:59:09;8.20;76.60
8103;DHT22;4094;49.948;11.574;2023-12-20T07:01:58;8.20;76.80
8103;DHT22;4094;49.948;11.574;2023-12-20T07:04:49;8.20;76.80
8103;DHT22;4094;49.948;11.574;2023-12-20T07:07:38;8.20;76.80
8103;DHT22;4094;49.948;11.574;2023-12-20T07:10:28;8.20;76.80
8103;DHT22;4094;49.948;11.574;2023-12-20T07:13:19;8.30;76.90
8103;DHT22;4094;49.948;11.574;2023-12-20T07:16:09;8.30;76.90
8103;DHT22;4094;49.948;11.574;2023-12-20T07:18:58;8.30;77.00
8103;DHT22;4094;49.948;11.574;2023-12-20T07:21:47;8.30;76.90
8103;DHT22;4094;49.948;11.574;2023-12-20T07:24:37;8.30;76.90
8103;DHT22;4094;49.948;11.574;2023-12-20T07:27:27;8.30;76.80
8103;DHT22;4094;49.948;11.574;2023-12-20T07:30:17;8.30;76.60
8103;DHT22;4094;49.948;11.574;2023-12-20T07:33:08;8.40;76.60
8103;DHT22;4094;49.948;11.574;2023-12-20T07:36:00;8.40;76.50
8103;DHT22;4094;49.948;11.574;2023-12-20T07:38:50;8.40;76.40
8103;DHT22;4094;49.948;11.574;2023-12-20T07:41:40;8.40;76.30
8103;DHT22;4094;49.948;11.574;2023-12-20T07:44:31;8.40;76.30
8103;DHT22;4094;49.948;11.574;2023-12-20T07:47:22;8.40;76.30
8103;DHT22;4094;49.948;11.574;2023-12-20T07:50:13;8.40;76.30
8103;DHT22;4094;49.948;11.574;2023-12-20T07:53:04;8.40;76.30
8103;DHT22;4094;49.948;11.574;2023-12-20T07:55:53;8.40;76.10
8103;DHT22;4094;49.948;11.574;2023-12-20T07:58:43;8.40;76.00
8103;DHT22;4094;49.948;11.574;2023-12-20T08:01:40;8.40;75.90
8103;DHT22;4094;49.948;11.574;2023-12-20T08:04:32;8.50;75.90
8103;DHT22;4094;49.948;11.574;2023-12-20T08:07:30;8.50;75.80
8103;DHT22;4094;49.948;11.574;2023-12-20T08:10:20;8.50;75.70
8103;DHT22;4094;49.948;11.574;2023-12-20T08:13:09;8.50;75.90
8103;DHT22;4094;49.948;11.574;2023-12-20T08:15:59;8.50;75.80
8103;DHT22;4094;49.948;11.574;2023-12-20T08:18:53;8.50;75.70
8103;DHT22;4094;49.948;11.574;2023-12-20T08:21:44;8.60;75.60
8103;DHT22;4094;49.948;11.574;2023-12-20T08:24:33;8.60;75.40
8103;DHT22;4094;49.948;11.574;2023-12-20T08:27:23;8.60;75.20
8103;DHT22;4094;49.948;11.574;2023-12-20T08:30:14;8.60;75.20
8103;DHT22;4094;49.948;11.574;2023-12-20T08:33:06;8.60;75.20
8103;DHT22;4094;49.948;11.574;2023-12-20T08:35:59;8.60;75.10
8103;DHT22;4094;49.948;11.574;2023-12-20T08:38:54;8.60;75.10
8103;DHT22;4094;49.948;11.574;2023-12-20T08:41:44;8.70;75.10
8103;DHT22;4094;49.948;11.574;2023-12-20T08:44:34;8.70;75.10
8103;DHT22;4094;49.948;11.574;2023-12-20T08:47:24;8.70;74.80
8103;DHT22;4094;49.948;11.574;2023-12-20T08:50:14;8.70;74.80
8103;DHT22;4094;49.948;11.574;2023-12-20T08:53:04;8.80;75.20
8103;DHT22;4094;49.948;11.574;2023-12-20T08:55:56;8.70;75.30
8103;DHT22;4094;49.948;11.574;2023-12-20T08:58:50;8.70;75.70
8103;DHT22;4094;49.948;11.574;2023-12-20T09:01:40;8.80;76.00
8103;DHT22;4094;49.948;11.574;2023-12-20T09:04:31;8.80;75.70
8103;DHT22;4094;49.948;11.574;2023-12-20T09:07:23;8.80;75.80
8103;DHT22;4094;49.948;11.574;2023-12-20T09:10:13;8.90;75.80
8103;DHT22;4094;49.948;11.574;2023-12-20T09:13:08;8.90;75.60
8103;DHT22;4094;49.948;11.574;2023-12-20T09:15:58;8.90;76.30
8103;DHT22;4094;49.948;11.574;2023-12-20T09:18:49;8.90;75.60
8103;DHT22;4094;49.948;11.574;2023-12-20T09:21:40;8.90;75.20
8103;DHT22;4094;49.948;11.574;2023-12-20T09:24:30;8.90;75.00
8103;DHT22;4094;49.948;11.574;2023-12-20T09:27:19;9.00;75.00
8103;DHT22;4094;49.948;11.574;2023-12-20T09:30:10;9.00;74.80
8103;DHT22;4094;49.948;11.574;2023-12-20T09:33:12;9.00;74.90
8103;DHT22;4094;49.948;11.574;2023-12-20T09:36:02;9.20;76.30
8103;DHT22;4094;49.948;11.574;2023-12-20T09:38:52;9.50;77.00
8103;DHT22;4094;49.948;11.574;2023-12-20T09:41:43;9.90;76.60
8103;DHT22;4094;49.948;11.574;2023-12-20T09:44:34;10.40;75.50
8103;DHT22;4094;49.948;11.574;2023-12-20T09:47:26;10.80;74.00
8103;DHT22;4094;49.948;11.574;2023-12-20T09:50:17;11.10;72.10
8103;DHT22;4094;49.948;11.574;2023-12-20T09:53:08;11.30;70.40
8103;DHT22;4094;49.948;11.574;2023-12-20T09:55:58;11.30;69.80
8103;DHT22;4094;49.948;11.574;2023-12-20T09:58:49;11.30;69.40
8103;DHT22;4094;49.948;11.574;2023-12-20T10:01:40;11.10;69.30
8103;DHT22;4094;49.948;11.574;2023-12-20T10:04:32;11.00;69.50
8103;DHT22;4094;49.948;11.574;2023-12-20T10:07:21;10.90;69.00
8103;DHT22;4094;49.948;11.574;2023-12-20T10:10:14;10.80;69.00
8103;DHT22;4094;49.948;11.574;2023-12-20T10:13:05;10.70;69.20
8103;DHT22;4094;49.948;11.574;2023-12-20T10:15:55;10.60;69.40
8103;DHT22;4094;49.948;11.574;2023-12-20T10:18:45;10.50;68.90
8103;DHT22;4094;49.948;11.574;2023-12-20T10:21:36;10.40;68.80
8103;DHT22;4094;49.948;11.574;2023-12-20T10:24:28;10.40;69.20
8103;DHT22;4094;49.948;11.574;2023-12-20T10:27:18;10.30;69.00
8103;DHT22;4094;49.948;11.574;2023-12-20T10:30:09;10.30;69.30
8103;DHT22;4094;49.948;11.574;2023-12-20T10:32:59;10.30;69.70
8103;DHT22;4094;49.948;11.574;2023-12-20T10:35:48;10.30;69.80
8103;DHT22;4094;49.948;11.574;2023-12-20T10:38:42;10.40;69.60
8103;DHT22;4094;49.948;11.574;2023-12-20T10:41:37;10.30;68.80
8103;DHT22;4094;49.948;11.574;2023-12-20T10:44:30;10.30;68.60
8103;DHT22;4094;49.948;11.574;2023-12-20T10:47:20;10.30;68.70
8103;DHT22;4094;49.948;11.574;2023-12-20T10:50:10;10.20;68.70
8103;DHT22;4094;49.948;11.574;2023-12-20T10:52:59;10.10;68.80
8103;DHT22;4094;49.948;11.574;2023-12-20T10:55:53;10.10;68.90
8103;DHT22;4094;49.948;11.574;2023-12-20T10:58:43;10.00;69.00
8103;DHT22;4094;49.948;11.574;2023-12-20T11:01:35;10.00;69.30
8103;DHT22;4094;49.948;11.574;2023-12-20T11:04:28;10.00;69.70
8103;DHT22;4094;49.948;11.574;2023-12-20T11:07:25;9.90;69.80
8103;DHT22;4094;49.948;11.574;2023-12-20T11:10:20;9.90;69.80
8103;DHT22;4094;49.948;11.574;2023-12-20T11:13:17;9.80;69.70
8103;DHT22;4094;49.948;11.574;2023-12-20T11:16:11;9.80;69.60
8103;DHT22;4094;49.948;11.574;2023-12-20T11:19:04;9.80;69.70
8103;DHT22;4094;49.948;11.574;2023-12-20T11:21:55;9.80;69.70
8103;DHT22;4094;49.948;11.574;2023-12-20T11:24:47;9.70;69.80
8103;DHT22;4094;49.948;11.574;2023-12-20T11:27:40;9.70;70.00
8103;DHT22;4094;49.948;11.574;2023-12-20T11:30:40;9.60;70.00
8103;DHT22;4094;49.948;11.574;2023-12-20T11:33:35;9.60;70.10
8103;DHT22;4094;49.948;11.574;2023-12-20T11:36:32;9.60;69.80
8103;DHT22;4094;49.948;11.574;2023-12-20T11:39:31;9.50;69.90
8103;DHT22;4094;49.948;11.574;2023-12-20T11:42:20;9.50;70.20
8103;DHT22;4094;49.948;11.574;2023-12-20T11:45:10;9.40;70.60
8103;DHT22;4094;49.948;11.574;2023-12-20T11:48:05;9.40;70.90
8103;DHT22;4094;49.948;11.574;2023-12-20T11:50:55;9.40;71.10
8103;DHT22;4094;49.948;11.574;2023-12-20T11:53:44;9.40;71.00
8103;DHT22;4094;49.948;11.574;2023-12-20T11:56:35;9.40;70.90
8103;DHT22;4094;49.948;11.574;2023-12-20T11:59:25;9.40;71.30
8103;DHT22;4094;49.948;11.574;2023-12-20T12:02:14;9.30;71.30
8103;DHT22;4094;49.948;11.574;2023-12-20T12:05:06;9.30;71.40
8103;DHT22;4094;49.948;11.574;2023-12-20T12:07:56;9.30;71.50
8103;DHT22;4094;49.948;11.574;2023-12-20T12:10:46;9.30;71.60
8103;DHT22;4094;49.948;11.574;2023-12-20T12:13:35;9.30;71.70
8103;DHT22;4094;49.948;11.574;2023-12-20T12:16:26;9.20;72.00
8103;DHT22;4094;49.948;11.574;2023-12-20T12:19:20;9.20;72.30
8103;DHT22;4094;49.948;11.574;2023-12-20T12:22:13;9.20;72.70
8103;DHT22;4094;49.948;11.574;2023-12-20T12:25:11;9.20;72.80
8103;DHT22;4094;49.948;11.574;2023-12-20T12:28:03;9.30;72.80
8103;DHT22;4094;49.948;11.574;2023-12-20T12:30:59;9.30;72.90
8103;DHT22;4094;49.948;11.574;2023-12-20T12:33:48;9.40;72.40
8103;DHT22;4094;49.948;11.574;2023-12-20T12:36:39;9.40;72.30
8103;DHT22;4094;49.948;11.574;2023-12-20T12:39:30;9.40;72.70
8103;DHT22;4094;49.948;11.574;2023-12-20T12:42:20;9.40;71.30
8103;DHT22;4094;49.948;11.574;2023-12-20T12:45:10;9.40;71.20
8103;DHT22;4094;49.948;11.574;2023-12-20T12:48:00;9.40;71.20
8103;DHT22;4094;49.948;11.574;2023-12-20T12:50:50;9.40;71.30
8103;DHT22;4094;49.948;11.574;2023-12-20T12:53:42;9.40;71.40
8103;DHT22;4094;49.948;11.574;2023-12-20T12:57:01;9.40;71.50
8103;DHT22;4094;49.948;11.574;2023-12-20T12:59:52;9.40;71.60
8103;DHT22;4094;49.948;11.574;2023-12-20T13:02:41;9.30;71.30
8103;DHT22;4094;49.948;11.574;2023-12-20T13:05:31;9.30;71.40
8103;DHT22;4094;49.948;11.574;2023-12-20T13:08:25;9.30;71.20
8103;DHT22;4094;49.948;11.574;2023-12-20T13:11:16;9.30;71.20
8103;DHT22;4094;49.948;11.574;2023-12-20T13:14:06;9.30;71.00
8103;DHT22;4094;49.948;11.574;2023-12-20T13:16:59;9.40;70.90
8103;DHT22;4094;49.948;11.574;2023-12-20T13:19:48;9.40;70.70
8103;DHT22;4094;49.948;11.574;2023-12-20T13:22:38;9.40;70.30
8103;DHT22;4094;49.948;11.574;2023-12-20T13:25:28;9.30;70.20
8103;DHT22;4094;49.948;11.574;2023-12-20T13:28:17;9.30;70.20
8103;DHT22;4094;49.948;11.574;2023-12-20T13:31:09;9.30;70.00
8103;DHT22;4094;49.948;11.574;2023-12-20T13:33:58;9.30;69.70
8103;DHT22;4094;49.948;11.574;2023-12-20T13:36:49;9.30;69.90
8103;DHT22;4094;49.948;11.574;2023-12-20T13:39:39;9.20;70.20
8103;DHT22;4094;49.948;11.574;2023-12-20T13:42:29;9.20;70.20
8103;DHT22;4094;49.948;11.574;2023-12-20T13:45:18;9.20;70.50
8103;DHT22;4094;49.948;11.574;2023-12-20T13:48:09;9.20;70.40
8103;DHT22;4094;49.948;11.574;2023-12-20T13:50:58;9.10;70.90
8103;DHT22;4094;49.948;11.574;2023-12-20T13:53:49;9.10;71.10
8103;DHT22;4094;49.948;11.574;2023-12-20T13:56:39;9.10;71.60
8103;DHT22;4094;49.948;11.574;2023-12-20T13:59:44;9.00;71.70
8103;DHT22;4094;49.948;11.574;2023-12-20T14:02:35;9.10;71.80
8103;DHT22;4094;49.948;11.574;2023-12-20T14:05:26;9.00;71.80
8103;DHT22;4094;49.948;11.574;2023-12-20T14:08:16;9.00;71.70
8103;DHT22;4094;49.948;11.574;2023-12-20T14:11:06;9.10;72.00
8103;DHT22;4094;49.948;11.574;2023-12-20T14:13:56;9.10;71.80
8103;DHT22;4094;49.948;11.574;2023-12-20T14:16:46;9.10;72.10
8103;DHT22;4094;49.948;11.574;2023-12-20T14:19:37;9.10;72.30
8103;DHT22;4094;49.948;11.574;2023-12-20T14:22:29;9.00;72.40
8103;DHT22;4094;49.948;11.574;2023-12-20T14:25:18;9.00;72.10
8103;DHT22;4094;49.948;11.574;2023-12-20T14:28:07;9.10;71.70
8103;DHT22;4094;49.948;11.574;2023-12-20T14:30:58;9.00;71.70
8103;DHT22;4094;49.948;11.574;2023-12-20T14:33:48;9.00;71.60
8103;DHT22;4094;49.948;11.574;2023-12-20T14:36:42;9.00;71.80
8103;DHT22;4094;49.948;11.574;2023-12-20T14:39:33;9.00;71.70
8103;DHT22;4094;49.948;11.574;2023-12-20T14:42:22;9.00;71.90
8103;DHT22;4094;49.948;11.574;2023-12-20T14:45:12;9.00;72.00
8103;DHT22;4094;49.948;11.574;2023-12-20T14:48:02;9.00;71.80
8103;DHT22;4094;49.948;11.574;2023-12-20T14:50:53;9.00;71.70
8103;DHT22;4094;49.948;11.574;2023-12-20T14:53:43;9.00;71.50
8103;DHT22;4094;49.948;11.574;2023-12-20T14:56:36;9.00;71.60
8103;DHT22;4094;49.948;11.574;2023-12-20T14:59:26;9.00;71.70
8103;DHT22;4094;49.948;11.574;2023-12-20T15:02:16;9.00;72.00
8103;DHT22;4094;49.948;11.574;2023-12-20T15:05:06;9.00;72.00
8103;DHT22;4094;49.948;11.574;2023-12-20T15:07:56;8.90;71.80
8103;DHT22;4094;49.948;11.574;2023-12-20T15:10:46;8.90;72.00
8103;DHT22;4094;49.948;11.574;2023-12-20T15:13:37;8.80;71.90
8103;DHT22;4094;49.948;11.574;2023-12-20T15:16:27;8.80;71.80
8103;DHT22;4094;49.948;11.574;2023-12-20T15:19:17;8.80;72.20
8103;DHT22;4094;49.948;11.574;2023-12-20T15:22:06;8.80;72.30
8103;DHT22;4094;49.948;11.574;2023-12-20T15:24:57;8.70;72.10
8103;DHT22;4094;49.948;11.574;2023-12-20T15:27:46;8.70;72.10
8103;DHT22;4094;49.948;11.574;2023-12-20T15:30:41;8.70;72.20
8103;DHT22;4094;49.948;11.574;2023-12-20T15:33:30;8.70;72.10
8103;DHT22;4094;49.948;11.574;2023-12-20T15:36:20;8.70;72.00
8103;DHT22;4094;49.948;11.574;2023-12-20T15:39:10;8.70;71.90
8103;DHT22;4094;49.948;11.574;2023-12-20T15:42:03;8.70;71.90
8103;DHT22;4094;49.948;11.574;2023-12-20T15:44:53;8.70;71.80
8103;DHT22;4094;49.948;11.574;2023-12-20T15:47:45;8.70;71.80
8103;DHT22;4094;49.948;11.574;2023-12-20T15:50:34;8.70;72.10
8103;DHT22;4094;49.948;11.574;2023-12-20T15:53:24;8.70;71.90
8103;DHT22;4094;49.948;11.574;2023-12-20T15:56:13;8.70;71.80
8103;DHT22;4094;49.948;11.574;2023-12-20T15:59:03;8.70;71.70
8103;DHT22;4094;49.948;11.574;2023-12-20T16:01:52;8.70;72.20
8103;DHT22;4094;49.948;11.574;2023-12-20T16:04:44;8.70;72.20
8103;DHT22;4094;49.948;11.574;2023-12-20T16:07:34;8.70;72.10
8103;DHT22;4094;49.948;11.574;2023-12-20T16:10:24;8.70;71.90
8103;DHT22;4094;49.948;11.574;2023-12-20T16:13:15;8.70;72.00
8103;DHT22;4094;49.948;11.574;2023-12-20T16:16:06;8.70;71.90
8103;DHT22;4094;49.948;11.574;2023-12-20T16:18:55;8.60;72.20
8103;DHT22;4094;49.948;11.574;2023-12-20T16:21:47;8.60;72.20
8103;DHT22;4094;49.948;11.574;2023-12-20T16:24:36;8.60;72.10
8103;DHT22;4094;49.948;11.574;2023-12-20T16:27:26;8.60;72.10
8103;DHT22;4094;49.948;11.574;2023-12-20T16:30:17;8.60;72.10
8103;DHT22;4094;49.948;11.574;2023-12-20T16:33:11;8.60;72.30
8103;DHT22;4094;49.948;11.574;2023-12-20T16:36:00;8.60;72.20
8103;DHT22;4094;49.948;11.574;2023-12-20T16:38:53;8.60;72.50
8103;DHT22;4094;49.948;11.574;2023-12-20T16:41:42;8.60;72.60
8103;DHT22;4094;49.948;11.574;2023-12-20T16:44:31;8.60;72.80
8103;DHT22;4094;49.948;11.574;2023-12-20T16:47:21;8.60;72.30
8103;DHT22;4094;49.948;11.574;2023-12-20T16:50:11;8.60;72.50
8103;DHT22;4094;49.948;11.574;2023-12-20T16:53:03;8.60;72.50
8103;DHT22;4094;49.948;11.574;2023-12-20T16:55:54;8.60;72.90
8103;DHT22;4094;49.948;11.574;2023-12-20T16:58:43;8.60;72.90
8103;DHT22;4094;49.948;11.574;2023-12-20T17:01:32;8.60;72.80
8103;DHT22;4094;49.948;11.574;2023-12-20T17:04:22;8.60;73.10
8103;DHT22;4094;49.948;11.574;2023-12-20T17:07:12;8.60;73.20
8103;DHT22;4094;49.948;11.574;2023-12-20T17:10:01;8.60;72.80
8103;DHT22;4094;49.948;11.574;2023-12-20T17:12:52;8.50;72.60
8103;DHT22;4094;49.948;11.574;2023-12-20T17:15:42;8.50;72.70
8103;DHT22;4094;49.948;11.574;2023-12-20T17:18:32;8.50;72.70
8103;DHT22;4094;49.948;11.574;2023-12-20T17:21:21;8.50;72.70
8103;DHT22;4094;49.948;11.574;2023-12-20T17:24:11;8.50;72.80
8103;DHT22;4094;49.948;11.574;2023-12-20T17:27:00;8.50;72.90
8103;DHT22;4094;49.948;11.574;2023-12-20T17:29:51;8.50;73.00
8103;DHT22;4094;49.948;11.574;2023-12-20T17:32:40;8.50;73.00
8103;DHT22;4094;49.948;11.574;2023-12-20T17:35:36;8.50;72.90
8103;DHT22;4094;49.948;11.574;2023-12-20T17:38:26;8.50;73.00
8103;DHT22;4094;49.948;11.574;2023-12-20T17:41:15;8.50;73.10
8103;DHT22;4094;49.948;11.574;2023-12-20T17:44:05;8.50;73.00
8103;DHT22;4094;49.948;11.574;2023-12-20T17:46:56;8.50;73.10
8103;DHT22;4094;49.948;11.574;2023-12-20T17:49:45;8.50;73.10
8103;DHT22;4094;49.948;11.574;2023-12-20T17:52:35;8.50;73.30
8103;DHT22;4094;49.948;11.574;2023-12-20T17:55:24;8.50;73.10
8103;DHT22;4094;49.948;11.574;2023-12-20T17:58:14;8.60;73.30
8103;DHT22;4094;49.948;11.574;2023-12-20T18:01:08;8.50;73.00
8103;DHT22;4094;49.948;11.574;2023-12-20T18:04:00;8.60;73.10
8103;DHT22;4094;49.948;11.574;2023-12-20T18:06:49;8.60;73.20
8103;DHT22;4094;49.948;11.574;2023-12-20T18:09:39;8.60;73.40
8103;DHT22;4094;49.948;11.574;2023-12-20T18:12:28;8.60;73.70
8103;DHT22;4094;49.948;11.574;2023-12-20T18:15:18;8.60;73.70
8103;DHT22;4094;49.948;11.574;2023-12-20T18:18:07;8.60;73.30
8103;DHT22;4094;49.948;11.574;2023-12-20T18:21:02;8.50;73.50
8103;DHT22;4094;49.948;11.574;2023-12-20T18:23:52;8.50;73.70
8103;DHT22;4094;49.948;11.574;2023-12-20T18:26:52;8.50;73.80
8103;DHT22;4094;49.948;11.574;2023-12-20T18:29:41;8.50;73.80
8103;DHT22;4094;49.948;11.574;2023-12-20T18:32:31;8.50;73.80